Time;durP1;ratioP1;P1;durP2;ratioP2;P2;SDS_P1;SDS_P2;PMS_P1;PMS_P2;Temp;Humidity;BMP_temperature;BMP_pressure;BME280_temperature;BME280_humidity;BME280_pressure;Samples;Min_cycle;Max_cycle;Signal;HPM_P1;HPM_P2
2022/12/11 03:40:46;;;;;;;53.88;17.77;;;;;;;-1.32;82.12;97249.91;5080790;27;1455795;-80
2022/12/11 03:43:13;;;;;;;54.55;16.77;;;;;;;-1.21;82.28;97246.28;5111056;28;20051;-80
2022/12/11 03:45:41;;;;;;;64.28;20.83;;;;;;;-1.07;82.34;97236.78;5110826;28;20031;-81
2022/12/11 03:48:08;;;;;;;59.40;21.40;;;;;;;-0.93;82.66;97242.59;5110395;28;20111;-81
2022/12/11 03:50:35;;;;;;;53.08;20.85;;;;;;;-0.79;82.42;97234.13;5110407;28;20102;-81
2022/12/11 03:53:02;;;;;;;47.97;17.63;;;;;;;-0.65;82.77;97234.53;5110987;28;20055;-81
2022/12/11 03:55:29;;;;;;;40.40;15.38;;;;;;;-0.53;82.67;97226.31;5111842;28;20023;-80
2022/12/11 03:57:54;;;;;;;39.20;15.10;;;;;;;-0.42;82.88;97230.72;5111142;28;20016;-81
2022/12/11 04:00:20;;;;;;;39.65;15.55;;;;;;;-0.35;82.67;97228.66;5111377;28;20468;-78
2022/12/11 04:03:11;;;;;;;36.58;14.93;;;;;;;-0.28;82.53;97223.03;5112537;28;20464;-81
2022/12/11 04:05:32;;;;;;;37.15;14.90;;;;;;;-0.19;82.71;97220.69;5120150;28;20028;-81
2022/12/11 04:07:57;;;;;;;32.45;14.27;;;;;;;-0.12;82.12;97223.97;5126145;27;20065;-80
2022/12/11 04:10:23;;;;;;;36.20;14.95;;;;;;;-0.05;82.41;97226.47;5126648;27;20028;-79
2022/12/11 04:12:48;;;;;;;31.52;13.38;;;;;;;-0.02;82.68;97224.06;5126709;27;20076;-81
2022/12/11 04:15:13;;;;;;;34.38;14.68;;;;;;;0.02;81.76;97221.66;5127038;28;20051;-80
2022/12/11 04:26:05;;;;;;;30.05;13.88;;;;;;;0.19;81.75;97218.00;5127743;28;20054;-80
2022/12/11 04:28:31;;;;;;;29.27;13.65;;;;;;;0.19;81.89;97209.91;5127144;27;20043;-80
2022/12/11 04:30:56;;;;;;;32.53;13.52;;;;;;;0.20;82.10;97206.97;5126676;28;20349;-79
2022/12/11 04:33:21;;;;;;;29.48;13.82;;;;;;;0.20;81.76;97201.59;5127241;28;20045;-80
2022/12/11 04:35:47;;;;;;;31.67;13.73;;;;;;;0.20;81.64;97201.59;5126174;28;20024;-80
2022/12/11 04:38:12;;;;;;;30.25;13.38;;;;;;;0.19;81.70;97193.75;5126988;27;20536;-80
2022/12/11 04:40:37;;;;;;;28.77;13.68;;;;;;;0.24;81.11;97199.16;5126417;28;20051;-79
2022/12/11 04:43:03;;;;;;;28.77;13.05;;;;;;;0.21;81.77;97197.78;5120320;27;20110;-82
2022/12/11 04:45:28;;;;;;;32.80;13.30;;;;;;;0.19;81.35;97208.03;5119923;28;20072;-81
2022/12/11 04:47:54;;;;;;;31.08;13.98;;;;;;;0.19;81.35;97199.97;5114032;28;20098;-82
2022/12/11 04:50:20;;;;;;;32.22;13.88;;;;;;;0.19;81.60;97210.75;5114148;28;20038;-81
2022/12/11 04:52:45;;;;;;;29.13;13.38;;;;;;;0.18;81.81;97203.72;5104667;28;20475;-81
2022/12/11 04:55:11;;;;;;;33.35;14.18;;;;;;;0.18;81.10;97211.81;5108166;28;20045;-81
2022/12/11 04:57:37;;;;;;;29.17;13.35;;;;;;;0.18;81.44;97213.69;5112172;28;20030;-81
2022/12/11 05:00:07;;;;;;;31.00;13.07;;;;;;;0.18;81.34;97211.81;5108447;28;20029;-80
2022/12/11 05:02:40;;;;;;;28.50;13.85;;;;;;;0.17;81.13;97212.06;5107360;28;20509;-80
2022/12/11 05:05:08;;;;;;;27.80;12.48;;;;;;;0.12;81.07;97210.16;5112370;28;20020;-80
2022/12/11 05:07:34;;;;;;;28.38;12.65;;;;;;;0.07;80.97;97202.81;5112966;28;20085;-79
2022/12/11 05:09:59;;;;;;;29.58;13.25;;;;;;;0.03;81.09;97204.41;5111210;28;20023;-80
2022/12/11 05:12:25;;;;;;;29.83;13.43;;;;;;;0.05;81.03;97196.88;5112283;28;20047;-80
2022/12/11 05:14:54;;;;;;;29.00;12.13;;;;;;;0.08;81.41;97207.13;5112473;28;20019;-80
2022/12/11 05:17:20;;;;;;;35.88;14.18;;;;;;;0.06;80.74;97208.47;5111925;28;20024;-79
2022/12/11 05:19:47;;;;;;;32.67;13.68;;;;;;;0.02;80.97;97210.06;5111848;28;20387;-80
2022/12/11 05:22:13;;;;;;;30.63;13.10;;;;;;;-0.01;81.07;97200.63;5105427;28;20028;-78
2022/12/11 05:24:39;;;;;;;30.08;13.85;;;;;;;-0.04;80.90;97199.25;5109133;28;20438;-79
2022/12/11 05:27:04;;;;;;;30.52;13.32;;;;;;;-0.07;81.00;97198.97;5103741;28;20059;-80
2022/12/11 05:29:29;;;;;;;29.80;13.43;;;;;;;-0.11;80.79;97201.34;5111559;27;20411;-80
2022/12/11 05:31:56;;;;;;;28.55;13.10;;;;;;;-0.11;81.05;97197.84;5110233;28;20046;-80
2022/12/11 05:34:21;;;;;;;30.52;13.70;;;;;;;-0.07;80.73;97198.97;5111771;28;20073;-78
2022/12/11 05:36:47;;;;;;;31.25;13.55;;;;;;;-0.07;81.02;97197.06;5111774;28;20079;-79
2022/12/11 05:39:12;;;;;;;30.52;13.15;;;;;;;-0.06;81.09;97192.50;5109808;28;20051;-79
2022/12/11 05:41:38;;;;;;;41.90;17.38;;;;;;;-0.06;80.62;97198.69;5112362;28;20074;-79
2022/12/11 05:44:03;;;;;;;45.28;16.30;;;;;;;-0.06;80.95;97189.81;5111348;28;20564;-80
2022/12/11 05:46:29;;;;;;;39.92;16.13;;;;;;;-0.05;80.53;97194.94;5109803;28;20032;-80
2022/12/11 05:48:58;;;;;;;32.15;12.77;;;;;;;-0.03;80.76;97200.06;5109096;28;20043;-79
2022/12/11 05:51:24;;;;;;;28.35;11.95;;;;;;;-0.02;80.97;97207.09;5096099;28;20028;-79
2022/12/11 05:53:51;;;;;;;27.05;12.82;;;;;;;-0.05;80.80;97213.78;5101225;28;20020;-80
2022/12/11 05:56:25;;;;;;;33.22;14.27;;;;;;;-0.09;80.54;97204.59;5106786;27;20429;-79
2022/12/11 05:58:52;;;;;;;25.10;12.32;;;;;;;-0.08;80.71;97210.81;5100650;28;20016;-79
2022/12/11 06:01:35;;;;;;;30.23;12.70;;;;;;;-0.11;80.71;97204.03;5098261;28;20065;-78
2022/12/11 06:04:02;;;;;;;28.85;13.48;;;;;;;-0.11;80.40;97214.81;5095719;28;20065;-79
2022/12/11 06:06:28;;;;;;;29.02;12.68;;;;;;;-0.11;80.70;97214.03;5095048;28;20365;-79
2022/12/11 06:08:55;;;;;;;30.48;13.82;;;;;;;-0.13;80.45;97216.16;5095102;28;20043;-79
2022/12/11 06:11:21;;;;;;;27.48;12.98;;;;;;;-0.14;80.45;97211.84;5097127;28;20375;-79
2022/12/11 06:13:47;;;;;;;27.25;12.93;;;;;;;-0.16;80.34;97212.91;5104237;28;20023;-80
2022/12/11 06:16:12;;;;;;;28.73;13.52;;;;;;;-0.16;80.43;97215.59;5099666;28;20387;-79
2022/12/11 06:18:40;;;;;;;29.30;13.20;;;;;;;-0.15;80.74;97211.00;5097351;28;20102;-79
2022/12/11 06:21:22;;;;;;;37.15;14.93;;;;;;;-0.13;80.37;97205.38;5098281;28;20038;-79
2022/12/11 06:23:50;;;;;;;35.08;14.40;;;;;;;-0.13;80.68;97216.97;5097582;28;20024;-79
2022/12/11 06:26:17;;;;;;;34.60;13.38;;;;;;;-0.13;80.22;97214.25;5098324;28;20600;-79
2022/12/11 06:28:44;;;;;;;30.02;12.90;;;;;;;-0.15;80.56;97213.72;5110639;28;20119;-79
2022/12/11 06:31:10;;;;;;;26.73;12.13;;;;;;;-0.19;80.56;97221.50;5110748;28;20027;-80
2022/12/11 06:33:36;;;;;;;25.65;11.63;;;;;;;-0.22;80.67;97227.41;5108839;28;20023;-79
2022/12/11 06:36:09;;;;;;;26.35;11.57;;;;;;;-0.22;80.26;97226.59;5110386;28;20035;-78
2022/12/11 06:38:36;;;;;;;28.13;11.98;;;;;;;-0.27;80.33;97226.56;5109000;28;20023;-79
2022/12/11 06:41:06;;;;;;;23.20;10.48;;;;;;;-0.30;80.39;97233.25;5109281;28;20088;-79
2022/12/11 06:43:33;;;;;;;22.45;10.88;;;;;;;-0.32;80.38;97228.13;5110809;28;20032;-79
2022/12/11 06:46:01;;;;;;;24.45;11.32;;;;;;;-0.32;80.53;97230.00;5109945;28;20023;-79
2022/12/11 06:48:27;;;;;;;22.88;11.05;;;;;;;-0.32;80.37;97243.47;5098203;28;20115;-80
2022/12/11 06:50:52;;;;;;;26.92;12.50;;;;;;;-0.35;80.15;97233.22;5106367;28;20131;-79
2022/12/11 06:53:18;;;;;;;24.63;11.20;;;;;;;-0.38;80.46;97239.09;5110491;28;20464;-79
2022/12/11 06:55:43;;;;;;;27.17;11.68;;;;;;;-0.39;80.31;97238.31;5110025;28;20059;-79
2022/12/11 06:58:09;;;;;;;25.08;12.07;;;;;;;-0.40;79.93;97238.53;5109872;28;20023;-79
2022/12/11 07:00:35;;;;;;;22.38;10.52;;;;;;;-0.42;80.11;97235.31;5108093;28;20463;-80
2022/12/11 07:03:01;;;;;;;26.83;11.48;;;;;;;-0.47;79.86;97231.50;5105945;28;20102;-80
2022/12/11 07:05:26;;;;;;;29.77;13.23;;;;;;;-0.47;79.95;97238.75;5105075;28;20119;-80
2022/12/11 07:07:53;;;;;;;25.83;11.30;;;;;;;-0.49;80.38;97228.25;5109634;27;20031;-81
2022/12/11 07:10:19;;;;;;;28.08;12.93;;;;;;;-0.50;80.60;97232.00;5110289;28;20055;-80
2022/12/11 07:12:44;;;;;;;28.88;12.82;;;;;;;-0.49;80.27;97238.19;5110218;28;20060;-80
2022/12/11 07:15:10;;;;;;;27.67;12.20;;;;;;;-0.49;80.39;97227.44;5109728;28;20023;-80
2022/12/11 07:17:35;;;;;;;25.58;12.70;;;;;;;-0.48;80.32;97239.81;5109211;28;20027;-80
2022/12/11 07:20:01;;;;;;;28.38;12.77;;;;;;;-0.50;80.11;97233.88;5110946;28;20047;-80
2022/12/11 07:22:27;;;;;;;30.58;13.50;;;;;;;-0.50;80.25;97236.56;5111504;28;20032;-80
2022/12/11 07:24:53;;;;;;;28.70;13.02;;;;;;;-0.50;80.54;97226.63;5109453;28;20030;-80
2022/12/11 07:27:18;;;;;;;30.55;13.75;;;;;;;-0.51;80.47;97243.84;5110299;28;20031;-80
2022/12/11 07:29:43;;;;;;;33.70;15.23;;;;;;;-0.52;80.12;97244.91;5110726;28;20033;-81
2022/12/11 07:32:09;;;;;;;34.97;15.20;;;;;;;-0.50;80.51;97252.72;5110860;28;20090;-80
2022/12/11 07:34:34;;;;;;;32.10;13.68;;;;;;;-0.50;80.33;97253.56;5111105;28;20043;-81
2022/12/11 07:37:00;;;;;;;28.15;12.50;;;;;;;-0.47;80.57;97253.06;5110368;28;20076;-81
2022/12/11 07:39:25;;;;;;;33.55;14.02;;;;;;;-0.46;80.60;97257.38;5110408;28;20050;-80
2022/12/11 07:41:51;;;;;;;29.90;13.40;;;;;;;-0.42;80.13;97256.88;5110611;28;20062;-80
2022/12/11 07:44:16;;;;;;;28.52;11.90;;;;;;;-0.44;80.18;97256.31;5110622;28;20064;-80
2022/12/11 07:46:41;;;;;;;30.80;13.10;;;;;;;-0.48;80.17;97258.69;5108277;28;20028;-80
2022/12/11 07:49:07;;;;;;;29.70;11.82;;;;;;;-0.49;80.38;97257.88;5110337;28;20110;-80
2022/12/11 07:51:35;;;;;;;28.30;12.25;;;;;;;-0.50;80.37;97256.25;5105495;28;20146;-80
2022/12/11 07:54:06;;;;;;;32.47;13.68;;;;;;;-0.48;80.13;97256.81;5109402;28;20054;-80
2022/12/11 07:56:32;;;;;;;27.50;11.25;;;;;;;-0.48;79.97;97253.28;5108335;28;20059;-80
2022/12/11 07:59:03;;;;;;;30.83;13.05;;;;;;;-0.47;80.04;97257.63;5106582;28;20486;-80
2022/12/11 08:01:32;;;;;;;29.58;12.57;;;;;;;-0.48;80.27;97254.13;5106080;28;20091;-80
2022/12/11 08:03:57;;;;;;;30.13;13.00;;;;;;;-0.50;80.30;97263.50;5108639;28;20062;-80
2022/12/11 08:06:28;;;;;;;28.17;12.40;;;;;;;-0.52;80.12;97260.25;5109746;28;20062;-80
2022/12/11 08:08:55;;;;;;;27.27;11.70;;;;;;;-0.52;80.05;97260.25;5105607;28;20058;-80
2022/12/11 08:11:21;;;;;;;28.13;11.80;;;;;;;-0.53;80.16;97258.63;5108852;28;20031;-80
2022/12/11 08:13:47;;;;;;;25.65;11.25;;;;;;;-0.52;79.89;97257.56;5111063;28;20035;-80
2022/12/11 08:16:14;;;;;;;27.75;11.50;;;;;;;-0.53;79.92;97254.06;5108919;28;20024;-81
2022/12/11 08:18:41;;;;;;;28.05;12.13;;;;;;;-0.52;79.79;97254.88;5103528;28;20404;-81
2022/12/11 08:21:10;;;;;;;26.08;11.98;;;;;;;-0.53;80.21;97261.31;5108426;28;20023;-81
2022/12/11 08:23:36;;;;;;;28.05;13.32;;;;;;;-0.57;80.02;97250.25;5108090;28;20496;-80
2022/12/11 08:26:04;;;;;;;27.65;13.07;;;;;;;-0.56;79.78;97249.19;5111737;28;20038;-80
2022/12/11 08:28:29;;;;;;;25.98;12.27;;;;;;;-0.53;79.87;97254.06;5111922;28;20024;-80
2022/12/11 08:30:55;;;;;;;30.92;11.77;;;;;;;-0.54;79.76;97247.06;5112829;27;20035;-79
2022/12/11 08:33:20;;;;;;;25.45;11.55;;;;;;;-0.51;79.80;97248.41;5113185;28;20224;-79
2022/12/11 08:35:46;;;;;;;28.40;11.73;;;;;;;-0.47;79.65;97254.91;5112957;27;20591;-79
2022/12/11 08:38:11;;;;;;;26.98;12.80;;;;;;;-0.48;79.71;97262.19;5112169;27;20497;-80
2022/12/11 08:40:37;;;;;;;26.92;12.73;;;;;;;-0.50;79.83;97267.03;5111607;28;20094;-80
2022/12/11 08:43:02;;;;;;;29.70;14.52;;;;;;;-0.49;79.77;97267.81;5111432;28;20039;-80
2022/12/11 08:45:28;;;;;;;35.35;16.80;;;;;;;-0.45;79.84;97260.88;5112667;28;20034;-79
2022/12/11 08:47:53;;;;;;;29.88;14.30;;;;;;;-0.46;79.52;97270.84;5111297;28;20058;-80
2022/12/11 08:50:19;;;;;;;30.80;13.93;;;;;;;-0.43;79.62;97268.72;5112264;28;20032;-80
2022/12/11 08:52:45;;;;;;;25.50;12.40;;;;;;;-0.45;79.88;97268.94;5112142;28;20028;-81
2022/12/11 08:55:10;;;;;;;27.80;12.95;;;;;;;-0.50;79.32;97274.28;5111118;28;20016;-81
2022/12/11 08:57:38;;;;;;;33.92;15.85;;;;;;;-0.54;79.89;97271.28;5112860;28;20050;-80
2022/12/11 09:00:05;;;;;;;31.60;14.27;;;;;;;-0.52;79.64;97262.94;5111563;28;20479;-81
2022/12/11 09:02:30;;;;;;;30.75;13.70;;;;;;;-0.51;79.98;97264.56;5107142;28;20024;-81
2022/12/11 09:04:56;;;;;;;29.58;12.88;;;;;;;-0.51;79.63;97261.88;5111999;28;20028;-80
2022/12/11 09:07:21;;;;;;;29.70;13.07;;;;;;;-0.48;79.64;97264.06;5112164;28;20023;-80
2022/12/11 09:09:46;;;;;;;28.05;11.55;;;;;;;-0.48;79.68;97275.66;5111514;28;20106;-81
2022/12/11 09:12:12;;;;;;;28.17;13.05;;;;;;;-0.51;79.27;97270.78;5110900;28;20471;-81
2022/12/11 09:14:38;;;;;;;24.40;12.77;;;;;;;-0.54;79.35;97267.78;5108084;28;20016;-81
2022/12/11 09:17:04;;;;;;;35.95;16.15;;;;;;;-0.56;79.60;97267.22;5112102;28;20506;-81
2022/12/11 09:19:29;;;;;;;31.10;13.85;;;;;;;-0.60;79.24;97267.72;5111575;28;20030;-81
2022/12/11 09:21:55;;;;;;;34.78;14.10;;;;;;;-0.61;79.10;97258.00;5109763;28;20539;-81
2022/12/11 09:24:21;;;;;;;26.27;12.38;;;;;;;-0.61;79.08;97257.22;5109965;28;20023;-82
2022/12/11 09:26:46;;;;;;;28.58;13.13;;;;;;;-0.65;79.24;97251.53;5109732;28;20032;-82
2022/12/11 09:29:12;;;;;;;31.33;13.27;;;;;;;-0.64;79.19;97257.72;5109180;28;20429;-80
2022/12/11 09:31:37;;;;;;;27.75;12.93;;;;;;;-0.66;79.05;97249.06;5095737;28;20698;-82
2022/12/11 09:34:06;;;;;;;24.35;12.35;;;;;;;-0.67;79.15;97256.34;5105496;28;20114;-82
2022/12/11 09:36:32;;;;;;;25.77;13.05;;;;;;;-0.68;79.08;97262.81;5111957;28;20038;-82
2022/12/11 09:39:02;;;;;;;26.13;13.57;;;;;;;-0.69;79.12;97266.56;5111062;28;20437;-83
2022/12/11 09:41:36;;;;;;;31.77;13.98;;;;;;;-0.70;78.98;97251.47;5110712;28;20024;-83
2022/12/11 09:44:28;;;;;;;26.27;12.20;;;;;;;-0.71;78.91;97255.22;5106984;28;20584;-83
2022/12/11 09:46:56;;;;;;;26.33;12.80;;;;;;;-0.72;78.73;97272.44;5111144;28;20062;-82
2022/12/11 09:49:36;;;;;;;26.77;14.20;;;;;;;-0.71;78.81;97263.31;5110493;28;20081;-82
2022/12/11 09:52:18;;;;;;;24.27;12.02;;;;;;;-0.77;78.72;97259.72;5110607;28;20051;-82
2022/12/11 09:54:58;;;;;;;28.08;13.50;;;;;;;-0.82;78.59;97253.47;5111205;28;20051;-82
2022/12/11 09:57:34;;;;;;;25.30;11.85;;;;;;;-0.85;78.58;97262.88;5111018;28;20022;-82
2022/12/11 10:00:10;;;;;;;26.02;12.50;;;;;;;-0.92;78.85;97248.81;5107738;28;20035;-82
2022/12/11 10:03:06;;;;;;;29.92;14.63;;;;;;;-0.98;78.85;97247.09;5107188;28;20011;-82
2022/12/11 10:06:01;;;;;;;31.10;15.45;;;;;;;-1.01;79.05;97259.19;5109514;28;20027;-80
2022/12/11 10:08:59;;;;;;;43.38;20.08;;;;;;;-1.02;79.19;97256.75;5105161;28;20035;-81
2022/12/11 10:11:38;;;;;;;39.85;17.45;;;;;;;-0.99;79.20;97250.88;5099209;28;20039;-81
2022/12/11 10:14:22;;;;;;;42.65;17.73;;;;;;;-0.97;79.26;97252.22;5102876;28;20026;-81
2022/12/11 10:16:51;;;;;;;31.98;14.57;;;;;;;-0.92;79.10;97251.50;5110718;28;20476;-81
2022/12/11 10:19:26;;;;;;;30.42;15.98;;;;;;;-0.93;79.00;97242.59;5107882;28;20028;-81
2022/12/11 10:21:52;;;;;;;27.75;12.70;;;;;;;-0.91;78.77;97255.81;5107680;28;20027;-81
2022/12/11 10:24:21;;;;;;;28.80;13.98;;;;;;;-1.02;78.50;97246.81;5104109;28;20647;-82
2022/12/11 10:26:46;;;;;;;25.13;12.38;;;;;;;-1.04;78.62;97254.31;5108948;28;20025;-83
2022/12/11 10:29:14;;;;;;;25.65;13.32;;;;;;;-1.05;78.68;97250.81;5109960;28;20038;-84
2022/12/11 10:31:50;;;;;;;24.73;12.40;;;;;;;-1.05;78.94;97253.50;5108871;28;20019;-82
2022/12/11 10:34:30;;;;;;;26.58;13.18;;;;;;;-1.02;78.81;97254.06;5108315;28;20032;-81
2022/12/11 10:36:56;;;;;;;27.83;13.40;;;;;;;-1.02;78.75;97251.38;5105178;28;20070;-80
2022/12/11 10:39:22;;;;;;;26.70;13.32;;;;;;;-1.01;78.57;97247.59;5092908;28;20982;-81
2022/12/11 10:41:49;;;;;;;25.58;12.88;;;;;;;-0.98;78.48;97241.72;5092934;28;20055;-81
2022/12/11 10:44:18;;;;;;;49.35;29.77;;;;;;;-0.96;78.61;97235.00;5102435;28;20115;-80
2022/12/11 10:47:02;;;;;;;33.28;15.73;;;;;;;-0.96;78.59;97226.16;5094903;28;20027;-80
2022/12/11 10:49:30;;;;;;;31.80;14.75;;;;;;;-0.96;78.15;97226.16;5104436;28;20031;-80
2022/12/11 10:52:00;;;;;;;33.72;15.00;;;;;;;-0.96;78.47;97223.44;5107215;28;20070;-80
2022/12/11 10:54:37;;;;;;;29.90;14.02;;;;;;;-0.95;78.19;97222.38;5107589;28;20043;-80
2022/12/11 10:57:04;;;;;;;27.98;13.13;;;;;;;-0.94;78.19;97214.03;5106627;28;20031;-80
2022/12/11 10:59:37;;;;;;;28.20;14.25;;;;;;;-0.95;78.44;97212.41;5109888;28;20026;-80
2022/12/11 11:02:05;;;;;;;28.65;13.73;;;;;;;-0.93;78.16;97217.56;5110263;28;20514;-81
2022/12/11 11:04:34;;;;;;;30.20;14.48;;;;;;;-0.91;78.16;97212.75;5089178;28;20023;-79
2022/12/11 11:07:25;;;;;;;24.80;11.48;;;;;;;-0.89;78.15;97210.63;5095685;28;20502;-79
2022/12/11 11:10:12;;;;;;;28.30;12.88;;;;;;;-0.88;78.02;97206.03;5093449;28;20034;-80
2022/12/11 11:13:00;;;;;;;25.67;12.07;;;;;;;-0.95;77.98;97206.25;5107136;28;20052;-81
2022/12/11 11:15:29;;;;;;;35.03;15.90;;;;;;;-0.99;77.54;97203.22;5110567;28;20016;-82
2022/12/11 11:18:02;;;;;;;27.95;13.15;;;;;;;-1.05;77.30;97207.75;5109707;28;20028;-82
2022/12/11 11:20:30;;;;;;;28.25;13.32;;;;;;;-1.08;77.79;97194.00;5109344;28;20039;-82
2022/12/11 11:22:58;;;;;;;28.77;14.30;;;;;;;-1.10;77.60;97201.50;5109478;28;20496;-83
2022/12/11 11:25:29;;;;;;;26.45;12.52;;;;;;;-1.09;77.95;97195.84;5109286;28;20364;-82
2022/12/11 11:28:05;;;;;;;30.02;14.18;;;;;;;-1.07;77.83;97201.78;5105018;28;20031;-82
2022/12/11 11:30:35;;;;;;;24.80;12.85;;;;;;;-1.04;78.05;97197.81;5109435;28;20034;-80
2022/12/11 11:33:10;;;;;;;23.92;12.10;;;;;;;-1.02;78.07;97193.00;5106479;28;20157;-79
2022/12/11 11:35:36;;;;;;;27.02;14.13;;;;;;;-1.00;78.08;97190.03;5101594;28;20027;-80
2022/12/11 11:38:13;;;;;;;26.50;13.80;;;;;;;-1.03;77.75;97194.06;5109430;28;20039;-78
2022/12/11 11:40:43;;;;;;;28.88;14.50;;;;;;;-1.03;77.88;97201.28;5109729;28;20472;-79
2022/12/11 11:43:39;;;;;;;29.63;14.93;;;;;;;-1.09;77.71;97201.22;5110260;28;20041;-82
2022/12/11 11:46:17;;;;;;;30.60;16.80;;;;;;;-1.17;77.70;97193.59;5110936;28;20030;-82
2022/12/11 11:48:55;;;;;;;29.15;15.50;;;;;;;-1.22;77.68;97188.16;5111784;28;20027;-80
2022/12/11 11:51:37;;;;;;;33.67;16.63;;;;;;;-1.30;77.78;97191.31;5102392;28;20024;-80
2022/12/11 11:54:17;;;;;;;37.83;16.00;;;;;;;-1.33;77.66;97197.19;5105718;28;20098;-80
2022/12/11 11:56:43;;;;;;;35.75;17.95;;;;;;;-1.34;78.42;97199.06;5109451;28;20043;-81
2022/12/11 11:59:32;;;;;;;44.00;19.73;;;;;;;-1.33;77.90;97195.28;5109417;28;20464;-81
2022/12/11 12:01:58;;;;;;;35.65;15.60;;;;;;;-1.30;77.84;97204.75;5102356;28;20061;-81
2022/12/11 12:04:30;;;;;;;67.57;32.75;;;;;;;-1.31;78.08;97195.88;5101223;28;20077;-81
2022/12/11 12:07:27;;;;;;;44.05;19.92;;;;;;;-1.33;77.96;97197.19;5109256;28;20027;-81
2022/12/11 12:10:08;;;;;;;44.50;18.20;;;;;;;-1.35;77.88;97189.34;5104883;28;20694;-81
2022/12/11 12:12:55;;;;;;;38.13;16.90;;;;;;;-1.37;77.94;97191.47;5108072;28;20507;-81
2022/12/11 12:15:34;;;;;;;36.42;17.08;;;;;;;-1.38;78.09;97190.69;5104634;28;20511;-79
2022/12/11 12:18:28;;;;;;;35.65;17.15;;;;;;;-1.36;77.82;97201.19;5112025;28;21400;-81
2022/12/11 12:21:04;;;;;;;29.73;14.50;;;;;;;-1.38;77.90;97190.69;5039576;27;20045;-82
2022/12/11 12:23:54;;;;;;;33.75;16.50;;;;;;;-1.38;77.84;97196.06;5113118;28;20062;-82
2022/12/11 12:26:23;;;;;;;27.88;13.95;;;;;;;-1.34;77.87;97199.06;5103888;28;20028;-83
2022/12/11 12:29:08;;;;;;;27.25;13.18;;;;;;;-1.32;77.77;97193.44;5113214;28;20041;-82
2022/12/11 12:31:52;;;;;;;27.52;13.00;;;;;;;-1.29;77.85;97193.75;5112294;28;20039;-80
2022/12/11 12:34:27;;;;;;;26.67;13.57;;;;;;;-1.31;78.00;97195.06;5113446;28;20065;-81
2022/12/11 12:37:23;;;;;;;44.50;21.75;;;;;;;-1.29;78.00;97193.75;5112996;28;20500;-80
2022/12/11 12:39:51;;;;;;;39.92;17.15;;;;;;;-1.30;77.86;97191.31;5111200;28;20044;-81
2022/12/11 12:42:57;;;;;;;36.95;16.40;;;;;;;-1.30;77.99;97199.38;5100995;28;20055;-80
2022/12/11 12:45:29;;;;;;;32.25;15.02;;;;;;;-1.28;77.60;97197.25;5111334;28;20031;-80
2022/12/11 12:47:55;;;;;;;43.53;17.98;;;;;;;-1.27;78.19;97201.56;5097861;28;20063;-78
2022/12/11 12:50:24;;;;;;;37.90;15.20;;;;;;;-1.26;77.92;97197.81;5106385;28;20122;-82
2022/12/11 12:52:51;;;;;;;52.77;20.80;;;;;;;-1.33;77.52;97211.44;5110515;28;20444;-81
2022/12/11 12:55:22;;;;;;;38.95;18.00;;;;;;;-1.37;77.76;97207.63;5112141;28;20281;-79
2022/12/11 12:57:53;;;;;;;32.42;16.92;;;;;;;-1.42;77.47;97213.75;5107127;28;20024;-82
2022/12/11 13:00:40;;;;;;;31.58;14.80;;;;;;;-1.50;77.54;97215.00;5110918;28;20031;-83
2022/12/11 13:03:28;;;;;;;33.17;15.38;;;;;;;-1.53;77.44;97212.81;5107063;28;20114;-82
2022/12/11 13:06:03;;;;;;;34.88;20.10;;;;;;;-1.57;77.64;97209.00;5111848;28;20024;-80
2022/12/11 13:08:50;;;;;;;56.78;34.35;;;;;;;-1.58;77.69;97212.75;5108325;28;20035;-80
2022/12/11 13:11:18;;;;;;;61.40;29.90;;;;;;;-1.59;77.77;97218.34;5103396;28;20059;-80
2022/12/11 13:14:08;;;;;;;54.35;33.13;;;;;;;-1.63;77.37;97223.41;5104332;28;20027;-80
2022/12/11 13:16:39;;;;;;;28.00;15.30;;;;;;;-1.67;77.66;97217.75;5087782;28;20036;-81
2022/12/11 13:19:31;;;;;;;26.73;13.35;;;;;;;-1.71;77.67;97229.22;5103727;28;20387;-80
2022/12/11 13:22:00;;;;;;;21.42;11.80;;;;;;;-1.70;77.67;97236.22;5105367;28;20015;-81
2022/12/11 13:24:29;;;;;;;21.05;11.48;;;;;;;-1.74;77.30;97233.22;5108539;28;20027;-80
2022/12/11 13:26:58;;;;;;;22.67;11.60;;;;;;;-1.76;77.58;97226.44;5092040;28;20032;-81
2022/12/11 13:29:37;;;;;;;20.73;11.20;;;;;;;-1.75;77.14;97236.97;5082449;28;20046;-81
2022/12/11 13:32:09;;;;;;;27.85;14.00;;;;;;;-1.77;77.64;97243.63;5109620;28;20023;-82
2022/12/11 13:34:41;;;;;;;28.42;17.15;;;;;;;-1.80;77.48;97239.59;5092385;28;20036;-79
2022/12/11 13:37:41;;;;;;;22.77;13.00;;;;;;;-1.83;77.39;97237.38;5091306;28;20513;-79
2022/12/11 13:40:16;;;;;;;20.95;11.00;;;;;;;-1.86;77.47;97232.50;5103299;28;20507;-80
2022/12/11 13:43:00;;;;;;;20.20;11.07;;;;;;;-1.88;77.38;97240.00;5092971;28;20020;-79
2022/12/11 13:45:31;;;;;;;21.73;11.60;;;;;;;-1.90;77.49;97242.94;5111566;28;20107;-77
2022/12/11 13:47:58;;;;;;;20.33;10.88;;;;;;;-1.90;77.40;97242.94;5110752;28;20023;-79
2022/12/11 13:50:27;;;;;;;21.98;11.05;;;;;;;-1.91;77.35;97244.00;5111798;28;20051;-78
2022/12/11 13:53:03;;;;;;;24.73;11.77;;;;;;;-1.92;77.64;97241.53;5111966;28;20387;-79
2022/12/11 13:55:32;;;;;;;25.15;13.23;;;;;;;-1.92;77.38;97254.97;5111923;28;20026;-78
2022/12/11 13:57:58;;;;;;;24.88;12.55;;;;;;;-1.95;77.64;97250.91;5110484;28;20068;-78
2022/12/11 14:00:29;;;;;;;24.75;12.98;;;;;;;-1.98;77.62;97244.13;5111164;28;20031;-78
2022/12/11 14:02:58;;;;;;;26.83;13.10;;;;;;;-1.98;77.67;97254.09;5097494;28;20147;-78
2022/12/11 14:05:23;;;;;;;25.15;12.27;;;;;;;-1.99;77.76;97255.16;5102387;28;20108;-79
2022/12/11 14:07:55;;;;;;;25.55;12.60;;;;;;;-1.99;77.70;97244.41;5100786;28;20103;-79
2022/12/11 14:10:30;;;;;;;25.88;13.35;;;;;;;-1.97;77.87;97253.84;5094142;28;20024;-79
2022/12/11 14:12:55;;;;;;;35.33;16.27;;;;;;;-1.94;77.86;97257.91;5090536;28;20504;-77
2022/12/11 14:15:23;;;;;;;36.60;15.43;;;;;;;-1.92;77.91;97257.66;5109392;28;20031;-78
2022/12/11 14:17:49;;;;;;;34.72;17.13;;;;;;;-1.89;77.87;97257.19;5103640;28;20125;-78
2022/12/11 14:20:21;;;;;;;27.30;13.73;;;;;;;-1.89;77.50;97259.84;5098345;28;20171;-78
2022/12/11 14:22:47;;;;;;;41.60;17.65;;;;;;;-1.91;77.61;97265.50;5090749;28;20043;-78
2022/12/11 14:25:26;;;;;;;39.40;17.08;;;;;;;-1.89;77.77;97273.28;5099628;28;20379;-78
2022/12/11 14:27:55;;;;;;;36.00;15.77;;;;;;;-1.87;77.90;97274.69;5109834;28;20376;-79
2022/12/11 14:30:26;;;;;;;32.45;14.20;;;;;;;-1.88;77.79;97261.50;5109060;28;20065;-78
2022/12/11 14:33:07;;;;;;;29.20;14.23;;;;;;;-1.91;77.85;97268.19;5096639;28;20028;-78
2022/12/11 14:35:40;;;;;;;37.58;16.20;;;;;;;-1.95;77.76;97251.72;5109692;28;20024;-78
2022/12/11 14:38:29;;;;;;;28.15;14.38;;;;;;;-2.00;77.76;97257.00;5110520;28;20326;-77
2022/12/11 14:40:59;;;;;;;30.10;13.90;;;;;;;-2.01;77.65;97263.44;5110279;28;20054;-79
2022/12/11 14:43:50;;;;;;;27.10;12.60;;;;;;;-2.03;77.82;97248.63;5111225;28;20023;-79
2022/12/11 14:46:24;;;;;;;25.48;12.57;;;;;;;-2.01;78.14;97266.13;5101242;28;20099;-78
2022/12/11 14:48:55;;;;;;;26.20;12.68;;;;;;;-2.05;77.78;97258.81;5108194;28;20024;-78
2022/12/11 14:51:22;;;;;;;24.40;13.15;;;;;;;-2.04;77.87;97257.75;5088957;28;20115;-78
2022/12/11 14:53:50;;;;;;;24.70;12.23;;;;;;;-2.02;77.98;97263.69;5102914;28;20531;-79
2022/12/11 14:56:25;;;;;;;27.60;13.23;;;;;;;-2.01;77.37;97254.56;5103475;28;20043;-79
2022/12/11 14:59:05;;;;;;;26.05;12.32;;;;;;;-2.02;78.06;97259.13;5096177;28;20491;-78
2022/12/11 15:01:36;;;;;;;25.35;12.70;;;;;;;-2.00;78.03;97258.91;5101599;28;20039;-79
2022/12/11 15:04:19;;;;;;;24.67;12.05;;;;;;;-1.98;77.94;97259.47;5088504;28;20036;-79
2022/12/11 15:06:46;;;;;;;34.95;15.18;;;;;;;-1.97;77.75;97267.25;5109046;28;20143;-78
2022/12/11 15:09:34;;;;;;;28.70;14.07;;;;;;;-1.97;77.84;97263.78;5098594;28;20050;-78
2022/12/11 15:12:11;;;;;;;32.88;14.02;;;;;;;-1.96;78.02;97268.09;5097163;28;20119;-77
2022/12/11 15:14:45;;;;;;;29.55;13.75;;;;;;;-1.96;77.88;97266.22;5099385;28;20027;-79
2022/12/11 15:17:13;;;;;;;33.78;15.35;;;;;;;-2.00;77.69;97259.69;5108719;28;20537;-76
2022/12/11 15:19:39;;;;;;;41.05;15.48;;;;;;;-1.99;77.68;97260.53;5110183;28;20099;-77
2022/12/11 15:22:07;;;;;;;36.78;16.20;;;;;;;-2.01;77.94;97259.94;5109372;28;20107;-77